createdAt,value
2022-08-10T00:01:38.084Z,24.20
2022-08-10T00:07:08.444Z,24.12
2022-08-10T00:12:54.317Z,24.06
2022-08-10T00:18:35.947Z,24.00
2022-08-10T00:24:07.125Z,23.95
2022-08-10T00:29:36.246Z,23.88
2022-08-10T00:35:05.678Z,23.79
2022-08-10T00:40:37.789Z,23.72
2022-08-10T00:46:07.002Z,23.65
2022-08-10T00:51:40.425Z,23.62
2022-08-10T00:57:18.814Z,23.52
2022-08-10T01:02:47.821Z,23.46
2022-08-10T01:08:31.597Z,23.39
2022-08-10T01:14:10.649Z,23.27
2022-08-10T01:19:54.062Z,23.06
2022-08-10T01:26:10.540Z,22.94
2022-08-10T01:31:35.148Z,22.89
2022-08-10T01:37:08.130Z,22.81
2022-08-10T01:42:38.613Z,22.74
2022-08-10T01:48:32.189Z,22.62
2022-08-10T01:54:04.068Z,22.57
2022-08-10T01:59:40.397Z,22.48
2022-08-10T02:05:12.868Z,22.38
2022-08-10T02:10:46.423Z,22.26
2022-08-10T02:16:18.063Z,22.23
2022-08-10T02:22:34.995Z,22.20
2022-08-10T02:27:41.824Z,22.09
2022-08-10T02:33:11.837Z,22.03
2022-08-10T02:38:59.205Z,21.97
2022-08-10T02:45:19.058Z,21.92
2022-08-10T02:50:29.530Z,21.87
2022-08-10T02:56:06.113Z,21.91
2022-08-10T03:01:39.233Z,21.87
2022-08-10T03:07:12.852Z,21.81
2022-08-10T03:12:44.421Z,21.79
2022-08-10T03:18:15.478Z,21.70
2022-08-10T03:23:46.547Z,21.72
2022-08-10T03:29:27.704Z,21.72
2022-08-10T03:34:58.216Z,21.68
2022-08-10T03:40:44.908Z,21.71
2022-08-10T03:46:18.300Z,21.74
2022-08-10T03:51:49.281Z,21.76
2022-08-10T03:57:18.177Z,21.76
2022-08-10T04:02:49.567Z,21.76
2022-08-10T04:08:19.275Z,21.74
2022-08-10T04:13:47.906Z,21.87
2022-08-10T04:19:19.988Z,21.94
2022-08-10T04:24:52.993Z,22.13
2022-08-10T04:30:22.134Z,22.34
2022-08-10T04:35:53.577Z,22.44
2022-08-10T04:41:23.547Z,22.40
2022-08-10T04:46:58.211Z,22.48
2022-08-10T04:52:30.073Z,22.60
2022-08-10T04:57:59.063Z,22.76
2022-08-10T05:03:28.370Z,23.02
2022-08-10T05:08:59.478Z,23.30
2022-08-10T05:14:29.190Z,23.38
2022-08-10T05:20:04.954Z,23.71
2022-08-10T05:25:38.012Z,23.78
2022-08-10T05:31:07.082Z,23.74
2022-08-10T05:36:35.866Z,23.90
2022-08-10T05:42:06.823Z,23.99
2022-08-10T05:48:55.304Z,24.10
2022-08-10T05:53:59.871Z,24.30
2022-08-10T05:59:16.419Z,24.32
2022-08-10T06:05:08.601Z,24.52
2022-08-10T06:12:23.187Z,24.83
2022-08-10T06:16:29.948Z,25.14
2022-08-10T06:22:01.718Z,25.25
2022-08-10T06:27:34.824Z,25.66
2022-08-10T06:33:08.246Z,26.09
2022-08-10T06:38:40.706Z,27.09
2022-08-10T06:44:12.525Z,29.27
2022-08-10T06:49:46.374Z,31.66
2022-08-10T06:55:18.675Z,33.37
2022-08-10T07:00:48.892Z,34.62
2022-08-10T07:06:21.761Z,34.94
2022-08-10T07:11:53.121Z,34.17
2022-08-10T07:17:24.506Z,34.26
2022-08-10T07:23:01.437Z,33.87
2022-08-10T07:28:48.314Z,34.36
2022-08-10T07:34:29.238Z,35.25
2022-08-10T07:40:04.596Z,35.11
2022-08-10T07:45:36.632Z,34.56
2022-08-10T07:51:08.565Z,34.36
2022-08-10T07:56:49.027Z,33.21
2022-08-10T08:02:24.879Z,32.95
2022-08-10T08:07:57.424Z,33.54
2022-08-10T08:13:29.642Z,34.00
2022-08-10T08:19:26.789Z,34.51
2022-08-10T08:24:52.496Z,34.94
2022-08-10T08:30:27.047Z,35.31
2022-08-10T08:35:58.604Z,35.75
2022-08-10T08:42:00.280Z,36.26
2022-08-10T08:48:04.088Z,36.42
2022-08-10T08:54:02.314Z,36.28
2022-08-10T08:59:53.122Z,36.02
2022-08-10T09:05:58.442Z,35.77
2022-08-10T09:11:39.740Z,35.95
2022-08-10T09:17:18.112Z,35.84
2022-08-10T09:22:57.937Z,34.82
2022-08-10T09:28:32.106Z,34.56
2022-08-10T09:36:23.686Z,35.01
2022-08-10T09:40:48.540Z,35.91
2022-08-10T09:46:06.175Z,36.02
2022-08-10T09:51:47.984Z,36.11
2022-08-10T09:57:44.444Z,35.47
2022-08-10T10:03:25.822Z,36.01
2022-08-10T10:09:10.707Z,36.36
2022-08-10T10:15:24.929Z,36.77
2022-08-10T10:21:06.570Z,37.21
2022-08-10T10:26:43.894Z,37.58
2022-08-10T10:32:19.829Z,37.78
2022-08-10T10:38:01.779Z,37.25
2022-08-10T10:43:45.999Z,36.78
2022-08-10T10:49:28.140Z,36.55
2022-08-10T10:55:06.073Z,36.58
2022-08-10T11:00:43.571Z,36.77
2022-08-10T11:06:39.730Z,36.38
2022-08-10T11:12:19.718Z,36.11
2022-08-10T11:18:00.376Z,36.07
2022-08-10T11:23:40.403Z,36.44
2022-08-10T11:29:17.764Z,36.37
2022-08-10T11:35:11.750Z,35.97
2022-08-10T11:40:50.392Z,35.33
2022-08-10T11:46:28.656Z,34.99
2022-08-10T11:52:01.765Z,35.03
2022-08-10T11:57:53.897Z,35.21
2022-08-10T12:03:23.722Z,35.40
2022-08-10T12:10:05.375Z,35.40
2022-08-10T12:14:51.622Z,35.53
2022-08-10T12:20:28.797Z,35.97
2022-08-10T12:26:07.568Z,35.84
2022-08-10T12:31:44.243Z,36.05
2022-08-10T12:37:27.966Z,36.35
2022-08-10T12:43:12.807Z,36.54
2022-08-10T12:53:47.655Z,36.76
2022-08-10T12:59:17.949Z,36.43
2022-08-10T13:04:50.617Z,36.21
2022-08-10T13:10:49.779Z,36.03
2022-08-10T13:16:22.323Z,36.30
2022-08-10T13:21:53.117Z,36.50
2022-08-10T13:28:01.159Z,36.32
2022-08-10T13:34:41.632Z,35.99
2022-08-10T13:39:20.315Z,35.70
2022-08-10T13:44:54.873Z,35.76
2022-08-10T13:50:33.483Z,35.27
2022-08-10T13:56:05.424Z,35.14
2022-08-10T14:01:36.901Z,34.82
2022-08-10T14:07:06.859Z,34.42
2022-08-10T14:12:38.723Z,34.10
2022-08-10T14:18:10.518Z,34.01
2022-08-10T14:23:52.083Z,33.65
2022-08-10T14:29:25.282Z,33.57
2022-08-10T14:36:16.406Z,33.54
2022-08-10T14:40:54.605Z,33.60
2022-08-10T14:46:28.226Z,33.40
2022-08-10T14:52:04.330Z,33.07
2022-08-10T14:58:19.246Z,32.94
2022-08-10T15:03:58.788Z,32.72
2022-08-10T15:09:20.982Z,32.47
2022-08-10T15:14:53.491Z,32.39
2022-08-10T15:20:26.154Z,32.45
2022-08-10T15:25:59.393Z,32.40
2022-08-10T15:31:32.299Z,32.41
2022-08-10T15:37:39.655Z,32.32
2022-08-10T15:43:25.169Z,32.19
2022-08-10T15:49:00.934Z,32.08
2022-08-10T15:54:33.205Z,31.88
2022-08-10T16:00:10.048Z,31.70
2022-08-10T16:06:00.868Z,31.51
2022-08-10T16:11:42.097Z,31.30
2022-08-10T16:17:15.326Z,31.12
2022-08-10T16:22:44.463Z,31.05
2022-08-10T16:28:23.233Z,30.87
2022-08-10T16:33:57.672Z,30.68
2022-08-10T16:39:59.172Z,30.65
2022-08-10T16:45:21.864Z,30.43
2022-08-10T16:50:55.979Z,30.42
2022-08-10T16:56:31.095Z,30.38
2022-08-10T17:02:02.658Z,30.23
2022-08-10T17:07:34.705Z,30.00
2022-08-10T17:13:06.299Z,29.89
2022-08-10T17:18:39.448Z,29.70
2022-08-10T17:24:11.446Z,29.52
2022-08-10T17:29:57.879Z,29.39
2022-08-10T17:35:36.427Z,29.10
2022-08-10T17:41:12.513Z,28.92
2022-08-10T17:46:45.212Z,28.80
2022-08-10T17:52:21.930Z,28.70
2022-08-10T17:58:01.772Z,28.59
2022-08-10T18:03:36.846Z,28.52
2022-08-10T18:09:12.041Z,28.40
2022-08-10T18:14:46.314Z,28.31
2022-08-10T18:20:20.126Z,28.31
2022-08-10T18:25:49.607Z,28.26
2022-08-10T18:31:21.178Z,28.17
2022-08-10T18:36:52.367Z,28.08
2022-08-10T18:42:27.732Z,27.95
2022-08-10T18:48:02.644Z,27.84
2022-08-10T18:53:35.740Z,27.73
2022-08-10T18:59:17.619Z,27.66
2022-08-10T19:05:04.721Z,27.53
2022-08-10T19:10:58.739Z,27.43
2022-08-10T19:16:36.888Z,27.24
2022-08-10T19:22:10.233Z,27.13
2022-08-10T19:27:57.721Z,27.03
2022-08-10T19:33:37.243Z,26.95
2022-08-10T19:39:19.443Z,26.91
2022-08-10T19:44:59.040Z,26.85
2022-08-10T19:50:33.970Z,26.78
2022-08-10T19:56:33.239Z,26.71
2022-08-10T20:02:04.881Z,26.69
2022-08-10T20:07:43.836Z,26.57
2022-08-10T20:13:22.535Z,26.55
2022-08-10T20:18:58.930Z,26.47
2022-08-10T20:24:31.310Z,26.41
2022-08-10T20:30:05.820Z,26.36
2022-08-10T20:35:48.507Z,26.29
2022-08-10T20:41:25.522Z,26.23
2022-08-10T20:47:03.124Z,26.22
2022-08-10T20:52:34.445Z,26.16
2022-08-10T20:58:26.439Z,26.15
2022-08-10T21:04:13.230Z,26.07
2022-08-10T21:09:56.544Z,25.95
2022-08-10T21:15:41.794Z,25.89
2022-08-10T21:21:41.935Z,25.77
2022-08-10T21:33:29.964Z,25.66
2022-08-10T21:39:11.136Z,25.62
2022-08-10T21:45:09.109Z,25.60
2022-08-10T21:51:06.074Z,25.49
2022-08-10T21:56:59.701Z,25.42
2022-08-10T22:02:50.982Z,25.37
2022-08-10T22:08:44.363Z,25.33
2022-08-10T22:14:42.252Z,25.29
2022-08-10T22:20:33.413Z,25.23
2022-08-10T22:26:28.931Z,25.14
2022-08-10T22:31:29.220Z,25.74
2022-08-10T22:32:25.877Z,25.11
2022-08-10T22:38:23.373Z,25.09
2022-08-10T22:44:16.133Z,25.05
2022-08-10T22:49:51.474Z,24.97
2022-08-10T22:55:43.241Z,24.86
2022-08-10T23:01:38.181Z,24.73
2022-08-10T23:07:21.260Z,24.66
2022-08-10T23:12:57.519Z,24.61
2022-08-10T23:18:51.489Z,24.53
2022-08-10T23:24:30.021Z,24.45
2022-08-10T23:30:10.237Z,24.37
2022-08-10T23:36:31.497Z,24.35
2022-08-10T23:41:40.122Z,24.31
2022-08-10T23:47:10.414Z,24.20
2022-08-10T23:52:40.281Z,24.20
2022-08-10T23:58:31.893Z,24.10
